createdAt,value
2023-01-19T00:00:30.155Z,100080.81
2023-01-19T00:02:56.737Z,100083.31
2023-01-19T00:05:23.179Z,100093.44
2023-01-19T00:07:49.558Z,100092.56
2023-01-19T00:10:16.603Z,100084.09
2023-01-19T00:12:43.107Z,100089.16
2023-01-19T00:15:10.112Z,100089.16
2023-01-19T00:17:36.617Z,100079.03
2023-01-19T00:20:04.005Z,100080.78
2023-01-19T00:22:30.541Z,100080.75
2023-01-19T00:24:57.040Z,100074.00
2023-01-19T00:27:24.480Z,100094.25
2023-01-19T00:29:50.969Z,100096.75
2023-01-19T00:32:17.878Z,100094.28
2023-01-19T00:34:49.665Z,100106.19
2023-01-19T00:37:17.222Z,100091.13
2023-01-19T00:39:43.880Z,100106.34
2023-01-19T00:42:32.085Z,100102.19
2023-01-19T00:44:58.663Z,100100.50
2023-01-19T00:47:25.190Z,100089.56
2023-01-19T00:49:51.597Z,100101.34
2023-01-19T00:52:18.009Z,100094.59
2023-01-19T00:54:44.392Z,100083.59
2023-01-19T00:57:10.771Z,100088.56
2023-01-19T00:59:37.164Z,100085.19
2023-01-19T01:02:03.785Z,100091.03
2023-01-19T01:04:30.721Z,100085.13
2023-01-19T01:06:57.241Z,100080.91
2023-01-19T01:09:24.256Z,100084.25
2023-01-19T01:11:50.703Z,100078.31
2023-01-19T01:14:18.204Z,100078.31
2023-01-19T01:16:45.059Z,100075.78
2023-01-19T01:19:11.600Z,100087.63
2023-01-19T01:21:38.400Z,100081.75
2023-01-19T01:24:05.313Z,100080.13
2023-01-19T01:26:31.721Z,100082.69
2023-01-19T01:28:58.192Z,100080.22
2023-01-19T01:31:25.009Z,100090.38
2023-01-19T01:33:51.501Z,100087.03
2023-01-19T01:36:19.021Z,100086.19
2023-01-19T01:38:45.457Z,100093.78
2023-01-19T01:41:12.561Z,100098.00
2023-01-19T01:43:48.710Z,100098.81
2023-01-19T01:46:17.218Z,100086.16
2023-01-19T01:48:50.611Z,100090.38
2023-01-19T01:51:33.069Z,100096.22
2023-01-19T01:54:02.480Z,100098.75
2023-01-19T01:56:40.734Z,100095.34
2023-01-19T01:59:12.690Z,100095.34
2023-01-19T02:01:58.042Z,100093.66
2023-01-19T02:04:25.231Z,100095.31
2023-01-19T02:07:10.311Z,100098.63
2023-01-19T02:09:56.165Z,100095.22
2023-01-19T02:12:41.842Z,100108.66
2023-01-19T02:15:20.803Z,100113.69
2023-01-19T02:17:47.872Z,100106.97
2023-01-19T02:20:14.881Z,100111.16
2023-01-19T02:22:51.772Z,100108.63
2023-01-19T02:25:19.772Z,100111.97
2023-01-19T02:27:47.989Z,100106.03
2023-01-19T02:30:16.535Z,100109.38
2023-01-19T02:32:43.604Z,100113.53
2023-01-19T02:35:11.770Z,100121.91
2023-01-19T02:37:40.564Z,100114.16
2023-01-19T02:40:19.663Z,100133.47
2023-01-19T02:42:50.020Z,100138.50
2023-01-19T02:45:20.602Z,100140.19
2023-01-19T02:47:50.202Z,100141.03
2023-01-19T02:50:38.163Z,100140.19
2023-01-19T02:53:19.712Z,100154.50
2023-01-19T02:55:54.307Z,100140.16
2023-01-19T02:58:33.673Z,100147.75
2023-01-19T03:01:12.577Z,100159.56
2023-01-19T03:03:56.481Z,100167.13
2023-01-19T03:06:23.262Z,100161.25
2023-01-19T03:08:56.015Z,100164.59
2023-01-19T03:11:29.004Z,100163.75
2023-01-19T03:14:03.589Z,100169.63
2023-01-19T03:16:38.456Z,100174.66
2023-01-19T03:19:17.791Z,100167.91
2023-01-19T03:21:49.393Z,100162.84
2023-01-19T03:24:19.068Z,100162.88
2023-01-19T03:26:52.203Z,100163.75
2023-01-19T03:29:21.994Z,100168.81
2023-01-19T03:31:50.265Z,100173.00
2023-01-19T03:34:22.004Z,100170.50
2023-01-19T03:36:58.800Z,100187.41
2023-01-19T03:39:27.471Z,100176.44
2023-01-19T03:42:02.961Z,100177.28
2023-01-19T03:44:32.448Z,100176.44
2023-01-19T03:46:59.809Z,100178.13
2023-01-19T03:49:27.038Z,100175.63
2023-01-19T03:51:56.483Z,100189.13
2023-01-19T03:54:22.974Z,100191.69
2023-01-19T03:56:51.636Z,100195.94
2023-01-19T03:59:19.956Z,100192.59
2023-01-19T04:01:46.578Z,100221.34
2023-01-19T04:04:13.721Z,100211.25
2023-01-19T04:06:40.074Z,100215.47
2023-01-19T04:09:06.628Z,100210.47
2023-01-19T04:11:33.005Z,100205.47
2023-01-19T04:13:59.479Z,100210.56
2023-01-19T04:16:25.910Z,100219.03
2023-01-19T04:18:52.767Z,100208.09
2023-01-19T04:21:20.361Z,100220.78
2023-01-19T04:23:46.918Z,100210.69
2023-01-19T04:26:13.385Z,100196.41
2023-01-19T04:28:39.749Z,100203.19
2023-01-19T04:31:07.129Z,100201.53
2023-01-19T04:33:34.558Z,100209.13
2023-01-19T04:36:01.673Z,100218.41
2023-01-19T04:38:28.326Z,100221.81
2023-01-19T04:40:55.034Z,100223.47
2023-01-19T04:43:22.922Z,100225.19
2023-01-19T04:45:49.971Z,100227.72
2023-01-19T04:48:19.251Z,100235.31
2023-01-19T04:50:46.398Z,100229.41
2023-01-19T04:53:13.740Z,100237.84
2023-01-19T04:55:40.691Z,100231.94
2023-01-19T04:58:07.199Z,100235.34
2023-01-19T05:00:33.738Z,100245.47
2023-01-19T05:03:01.553Z,100251.38
2023-01-19T05:05:28.461Z,100258.13
2023-01-19T05:07:55.110Z,100255.59
2023-01-19T05:10:22.175Z,100257.25
2023-01-19T05:12:48.703Z,100267.34
2023-01-19T05:15:15.132Z,100267.34
2023-01-19T05:17:41.866Z,100267.38
2023-01-19T05:20:10.993Z,100269.06
2023-01-19T05:22:38.443Z,100274.09
2023-01-19T05:25:08.599Z,100269.84
2023-01-19T05:27:35.927Z,100274.03
2023-01-19T05:30:02.378Z,100273.19
2023-01-19T05:32:28.773Z,100278.25
2023-01-19T05:34:55.141Z,100274.06
2023-01-19T05:37:21.490Z,100273.22
2023-01-19T05:39:47.928Z,100276.56
2023-01-19T05:42:14.369Z,100282.50
2023-01-19T05:44:40.742Z,100289.25
2023-01-19T05:47:07.467Z,100291.78
2023-01-19T05:49:33.890Z,100320.44
2023-01-19T05:52:00.261Z,100311.97
2023-01-19T05:54:26.705Z,100290.84
2023-01-19T05:56:53.143Z,100307.69
2023-01-19T05:59:24.041Z,100295.88
2023-01-19T06:01:54.313Z,100307.69
2023-01-19T06:04:21.287Z,100304.31
2023-01-19T06:06:48.931Z,100307.69
2023-01-19T06:09:15.394Z,100310.22
2023-01-19T06:11:41.851Z,100308.59
2023-01-19T06:14:09.945Z,100320.38
2023-01-19T06:16:36.609Z,100316.16
2023-01-19T06:19:03.177Z,100320.41
2023-01-19T06:21:29.600Z,100329.72
2023-01-19T06:23:56.060Z,100343.19
2023-01-19T06:26:22.586Z,100351.59
2023-01-19T06:28:51.333Z,100341.47
2023-01-19T06:31:18.136Z,100344.81
2023-01-19T06:33:44.617Z,100354.94
2023-01-19T06:36:11.087Z,100363.38
2023-01-19T06:38:37.521Z,100373.50
2023-01-19T06:41:04.784Z,100376.03
2023-01-19T06:43:31.631Z,100382.72
2023-01-19T06:45:58.359Z,100379.38
2023-01-19T06:48:24.853Z,100381.91
2023-01-19T06:50:51.398Z,100378.56
2023-01-19T06:53:20.681Z,100378.56
2023-01-19T06:55:47.087Z,100387.84
2023-01-19T06:58:14.034Z,100388.69
2023-01-19T07:00:40.482Z,100393.78
2023-01-19T07:03:07.556Z,100390.44
2023-01-19T07:05:37.035Z,100396.34
2023-01-19T07:08:03.971Z,100400.56
2023-01-19T07:11:26.446Z,100405.66
2023-01-19T07:13:17.065Z,100404.88
2023-01-19T07:15:43.617Z,100411.63
2023-01-19T07:18:10.167Z,100409.97
2023-01-19T07:20:37.916Z,100423.47
2023-01-19T07:23:04.400Z,100425.19
2023-01-19T07:25:30.984Z,100432.81
2023-01-19T07:28:00.692Z,100428.59
2023-01-19T07:30:28.023Z,100436.22
2023-01-19T07:32:57.155Z,100445.47
2023-01-19T07:35:27.058Z,100444.63
2023-01-19T07:37:53.610Z,100444.66
2023-01-19T07:40:20.014Z,100454.75
2023-01-19T07:42:50.514Z,100461.50
2023-01-19T07:45:18.188Z,100455.56
2023-01-19T07:47:45.275Z,100458.06
2023-01-19T07:50:13.694Z,100464.81
2023-01-19T07:52:40.163Z,100469.88
2023-01-19T07:55:08.114Z,100469.84
2023-01-19T07:57:35.392Z,100469.84
2023-01-19T08:00:03.749Z,100473.22
2023-01-19T08:02:30.220Z,100485.06
2023-01-19T08:04:56.725Z,100485.03
2023-01-19T08:07:23.232Z,100499.41
2023-01-19T08:09:49.822Z,100497.72
2023-01-19T08:12:17.152Z,100498.56
2023-01-19T08:14:43.726Z,100508.66
2023-01-19T08:17:12.578Z,100512.91
2023-01-19T08:19:41.398Z,100515.44
2023-01-19T08:22:08.063Z,100521.31
2023-01-19T08:24:34.487Z,100517.09
2023-01-19T08:27:02.609Z,100525.56
2023-01-19T08:29:31.782Z,100529.75
2023-01-19T08:32:00.177Z,100524.72
2023-01-19T08:34:27.135Z,100529.75
2023-01-19T08:36:54.041Z,100532.28
2023-01-19T08:39:20.566Z,100533.97
2023-01-19T08:41:47.047Z,100539.03
2023-01-19T08:44:13.446Z,100542.41
2023-01-19T08:46:39.969Z,100542.41
2023-01-19T08:49:18.959Z,100553.34
2023-01-19T08:51:49.050Z,100554.13
2023-01-19T08:54:18.523Z,100548.94
2023-01-19T08:56:45.154Z,100553.13
2023-01-19T09:01:58.154Z,100569.28
2023-01-19T09:04:25.027Z,100563.31
2023-01-19T09:06:51.644Z,100557.63
2023-01-19T09:09:18.029Z,100562.28
2023-01-19T09:11:44.450Z,100565.28
2023-01-19T09:14:10.830Z,100566.22
2023-01-19T09:16:37.296Z,100561.22
2023-01-19T09:19:03.842Z,100565.50
2023-01-19T09:21:30.332Z,100570.59
2023-01-19T09:23:57.712Z,100563.00
2023-01-19T09:26:24.237Z,100577.41
2023-01-19T09:28:50.814Z,100574.03
2023-01-19T09:31:17.615Z,100575.72
2023-01-19T09:33:44.094Z,100582.50
2023-01-19T09:36:10.715Z,100582.47
2023-01-19T09:38:38.301Z,100582.47
2023-01-19T09:41:16.910Z,100585.81
2023-01-19T09:43:49.054Z,100584.91
2023-01-19T09:46:18.117Z,100578.97
2023-01-19T09:48:52.116Z,100590.75
2023-01-19T09:51:23.136Z,100589.00
2023-01-19T09:54:14.715Z,100596.56
2023-01-19T09:56:46.069Z,100595.66
2023-01-19T09:59:25.422Z,100596.50
2023-01-19T10:02:05.467Z,100597.25
2023-01-19T10:04:58.383Z,100596.38
2023-01-19T10:07:36.805Z,100599.72
2023-01-19T10:10:20.475Z,100610.66
2023-01-19T10:12:56.016Z,100612.28
2023-01-19T10:15:40.563Z,100606.34
2023-01-19T10:18:06.982Z,100618.13
2023-01-19T10:20:38.208Z,100618.94
2023-01-19T10:23:14.607Z,100620.59
2023-01-19T10:25:41.535Z,100617.16
2023-01-19T10:28:08.868Z,100625.59
2023-01-19T10:30:35.445Z,100622.97
2023-01-19T10:33:02.241Z,100623.72
2023-01-19T10:35:29.912Z,100622.84
2023-01-19T10:38:00.603Z,100621.94
2023-01-19T10:40:34.584Z,100620.22
2023-01-19T10:43:01.908Z,100622.69
2023-01-19T10:45:31.005Z,100626.00
2023-01-19T10:48:04.640Z,100624.31
2023-01-19T10:50:33.784Z,100621.72
2023-01-19T10:53:03.884Z,100622.50
2023-01-19T10:55:31.809Z,100627.53
2023-01-19T10:57:59.186Z,100624.97
2023-01-19T11:00:42.167Z,100615.59
2023-01-19T11:03:23.457Z,100618.06
2023-01-19T11:05:50.343Z,100626.53
2023-01-19T11:08:30.644Z,100624.78
2023-01-19T11:11:05.206Z,100634.91
2023-01-19T11:13:32.432Z,100627.28
2023-01-19T11:16:18.811Z,100628.94
2023-01-19T11:18:47.139Z,100633.94
2023-01-19T11:21:16.244Z,100632.13
2023-01-19T11:23:50.991Z,100627.88
2023-01-19T11:27:03.562Z,100637.34
2023-01-19T11:29:31.524Z,100643.47
2023-01-19T11:32:11.574Z,100637.75
2023-01-19T11:34:41.061Z,100640.47
2023-01-19T11:37:16.549Z,100637.13
2023-01-19T11:39:51.239Z,100642.97
2023-01-19T11:42:19.573Z,100629.44
2023-01-19T11:45:00.265Z,100636.22
2023-01-19T11:47:33.062Z,100640.34
2023-01-19T11:50:05.869Z,100640.34
2023-01-19T11:52:43.152Z,100636.16
2023-01-19T11:55:12.521Z,100637.06
2023-01-19T11:57:45.317Z,100636.28
2023-01-19T12:00:42.498Z,100643.13
2023-01-19T12:03:34.004Z,100639.75
2023-01-19T12:06:06.891Z,100637.22
2023-01-19T12:08:39.483Z,100638.00
2023-01-19T12:11:09.367Z,100640.34
2023-01-19T12:13:37.435Z,100639.53
2023-01-19T12:16:06.513Z,100637.91
2023-01-19T12:18:44.056Z,100643.94
2023-01-19T12:21:10.727Z,100637.25
2023-01-19T12:23:37.056Z,100644.09
2023-01-19T12:26:16.968Z,100639.09
2023-01-19T12:28:47.584Z,100642.56
2023-01-19T12:31:18.967Z,100643.47
2023-01-19T12:33:45.599Z,100642.69
2023-01-19T12:36:27.020Z,100635.97
2023-01-19T12:38:55.829Z,100637.66
2023-01-19T12:41:24.735Z,100647.84
2023-01-19T12:44:12.394Z,100647.03
2023-01-19T12:46:45.853Z,100653.78
2023-01-19T12:49:24.381Z,100655.50
2023-01-19T12:51:55.228Z,100650.41
2023-01-19T12:54:32.565Z,100646.16
2023-01-19T12:57:03.950Z,100655.41
2023-01-19T12:59:33.706Z,100651.00
2023-01-19T13:02:24.824Z,100656.72
2023-01-19T13:05:07.137Z,100646.44
2023-01-19T13:08:01.694Z,100655.69
2023-01-19T13:10:59.138Z,100650.47
2023-01-19T13:13:36.368Z,100657.22
2023-01-19T13:16:18.130Z,100653.81
2023-01-19T13:19:08.457Z,100659.66
2023-01-19T13:21:44.823Z,100653.59
2023-01-19T13:24:14.873Z,100657.72
2023-01-19T13:26:50.365Z,100659.41
2023-01-19T13:29:36.324Z,100651.81
2023-01-19T13:32:11.490Z,100651.81
2023-01-19T13:34:45.429Z,100654.31
2023-01-19T13:37:35.492Z,100662.81
2023-01-19T13:40:02.847Z,100661.06
2023-01-19T13:42:40.032Z,100670.47
2023-01-19T13:45:33.692Z,100664.63
2023-01-19T13:48:04.596Z,100667.25
2023-01-19T13:50:34.707Z,100672.38
2023-01-19T13:53:01.487Z,100678.38
2023-01-19T13:55:29.950Z,100674.19
2023-01-19T13:57:57.199Z,100677.59
2023-01-19T14:00:27.905Z,100680.22
2023-01-19T14:03:01.667Z,100681.16
2023-01-19T14:05:28.104Z,100684.59
2023-01-19T14:08:12.878Z,100685.53
2023-01-19T14:10:47.627Z,100693.22
2023-01-19T14:13:34.501Z,100694.97
2023-01-19T14:16:06.024Z,100697.56
2023-01-19T14:18:33.808Z,100704.34
2023-01-19T14:21:03.347Z,100699.28
2023-01-19T14:23:50.123Z,100705.22
2023-01-19T14:26:38.215Z,100706.16
2023-01-19T14:29:29.583Z,100705.28
2023-01-19T14:32:15.795Z,100709.59
2023-01-19T14:34:51.136Z,100709.59
2023-01-19T14:37:20.144Z,100707.03
2023-01-19T14:39:55.453Z,100710.38
2023-01-19T14:42:27.018Z,100709.59
2023-01-19T14:44:56.053Z,100712.97
2023-01-19T14:47:36.386Z,100712.97
2023-01-19T14:50:27.206Z,100712.16
2023-01-19T14:53:02.078Z,100707.06
2023-01-19T14:55:49.764Z,100710.47
2023-01-19T14:58:19.594Z,100708.78
2023-01-19T15:00:48.092Z,100718.13
2023-01-19T15:03:15.058Z,100713.06
2023-01-19T15:05:44.856Z,100705.47
2023-01-19T15:08:16.049Z,100716.50
2023-01-19T15:10:43.191Z,100714.84
2023-01-19T15:13:18.859Z,100703.06
2023-01-19T15:15:45.379Z,100710.66
2023-01-19T15:18:18.542Z,100716.53
2023-01-19T15:20:45.211Z,100718.25
2023-01-19T15:23:12.463Z,100722.50
2023-01-19T15:25:39.630Z,100727.59
2023-01-19T15:28:14.763Z,100732.72
2023-01-19T15:30:41.204Z,100731.00
2023-01-19T15:33:21.588Z,100730.19
2023-01-19T15:35:48.550Z,100747.94
2023-01-19T15:38:14.982Z,100743.75
2023-01-19T15:40:41.659Z,100744.66
2023-01-19T15:43:11.032Z,100745.50
2023-01-19T15:45:42.969Z,100748.88
2023-01-19T15:48:11.669Z,100753.13
2023-01-19T15:50:43.192Z,100756.53
2023-01-19T15:53:18.028Z,100754.84
2023-01-19T15:55:49.448Z,100758.25
2023-01-19T15:58:16.020Z,100754.91
2023-01-19T16:00:42.608Z,100751.53
2023-01-19T16:03:10.614Z,100765.88
2023-01-19T16:05:42.789Z,100765.91
2023-01-19T16:08:11.237Z,100766.75
2023-01-19T16:10:37.831Z,100765.88
2023-01-19T16:13:04.327Z,100760.84
2023-01-19T16:15:30.887Z,100764.19
2023-01-19T16:17:58.273Z,100766.72
2023-01-19T16:20:24.651Z,100772.63
2023-01-19T16:22:50.981Z,100780.22
2023-01-19T16:25:17.467Z,100777.63
2023-01-19T16:27:43.855Z,100781.03
2023-01-19T16:30:14.783Z,100790.25
2023-01-19T16:32:41.218Z,100794.44
2023-01-19T16:35:08.022Z,100792.72
2023-01-19T16:37:34.723Z,100792.72
2023-01-19T16:40:01.151Z,100803.66
2023-01-19T16:42:27.535Z,100801.97
2023-01-19T16:44:54.537Z,100814.56
2023-01-19T16:47:21.150Z,100810.31
2023-01-19T16:49:47.621Z,100809.47
2023-01-19T16:52:14.033Z,100814.50
2023-01-19T16:54:43.800Z,100816.13
2023-01-19T16:57:10.994Z,100816.09
2023-01-19T16:59:39.452Z,100816.91
2023-01-19T17:02:06.641Z,100821.09
2023-01-19T17:04:33.196Z,100824.44
2023-01-19T17:06:59.585Z,100823.56
2023-01-19T17:09:25.974Z,100826.88
2023-01-19T17:11:53.879Z,100827.69
2023-01-19T17:14:20.995Z,100829.34
2023-01-19T17:16:47.846Z,100830.16
2023-01-19T17:19:16.867Z,100836.88
2023-01-19T17:21:46.071Z,100840.22
2023-01-19T17:24:12.712Z,100845.22
2023-01-19T17:26:39.209Z,100837.66
2023-01-19T17:29:08.377Z,100846.03
2023-01-19T17:31:35.491Z,100856.13
2023-01-19T17:34:02.565Z,100851.03
2023-01-19T17:36:30.640Z,100856.91
2023-01-19T17:38:59.489Z,100855.19
2023-01-19T17:41:31.507Z,100861.03
2023-01-19T17:44:00.057Z,100861.84
2023-01-19T17:46:28.090Z,100856.75
2023-01-19T17:48:59.764Z,100859.25
2023-01-19T17:51:26.846Z,100859.19
2023-01-19T17:53:54.727Z,100854.09
2023-01-19T17:56:27.517Z,100857.44
2023-01-19T17:58:54.566Z,100862.47
2023-01-19T18:01:23.848Z,100861.59
2023-01-19T18:03:50.374Z,100871.66
2023-01-19T18:06:17.330Z,100864.03
2023-01-19T18:08:46.259Z,100864.88
2023-01-19T18:11:14.217Z,100868.22
2023-01-19T18:13:43.542Z,100868.19
2023-01-19T18:16:14.614Z,100868.16
2023-01-19T18:18:41.175Z,100868.13
2023-01-19T18:21:10.357Z,100871.47
2023-01-19T18:23:37.032Z,100880.75
2023-01-19T18:26:09.335Z,100878.22
2023-01-19T18:28:36.918Z,100884.91
2023-01-19T18:31:11.161Z,100887.44
2023-01-19T18:33:38.760Z,100891.75
2023-01-19T18:36:06.466Z,100891.88
2023-01-19T18:38:33.451Z,100894.44
2023-01-19T18:41:08.177Z,100891.13
2023-01-19T18:43:34.771Z,100896.16
2023-01-19T18:46:01.693Z,100894.47
2023-01-19T18:48:28.637Z,100891.94
2023-01-19T18:50:55.094Z,100889.44
2023-01-19T18:53:22.074Z,100896.19
2023-01-19T18:55:52.301Z,100890.25
2023-01-19T18:58:19.280Z,100891.94
2023-01-19T19:00:45.830Z,100894.44
2023-01-19T19:03:12.352Z,100902.00
2023-01-19T19:05:38.820Z,100902.81
2023-01-19T19:08:06.385Z,100902.81
2023-01-19T19:10:33.077Z,100903.75
2023-01-19T19:12:59.811Z,100902.06
2023-01-19T19:15:27.204Z,100905.50
2023-01-19T19:17:54.314Z,100916.50
2023-01-19T19:20:22.695Z,100920.78
2023-01-19T19:22:49.164Z,100932.63
2023-01-19T19:25:15.732Z,100934.34
2023-01-19T19:27:45.287Z,100928.53
2023-01-19T19:30:12.957Z,100929.44
2023-01-19T19:32:39.603Z,100934.56
2023-01-19T19:35:06.425Z,100927.81
2023-01-19T19:37:32.802Z,100943.03
2023-01-19T19:39:59.972Z,100954.84
2023-01-19T19:42:28.448Z,100946.47
2023-01-19T19:44:54.970Z,100951.53
2023-01-19T19:47:21.494Z,100948.19
2023-01-19T19:49:47.943Z,100959.13
2023-01-19T19:52:14.438Z,100965.03
2023-01-19T19:54:40.982Z,100968.41
2023-01-19T19:57:07.469Z,100971.78
2023-01-19T19:59:33.836Z,100970.94
2023-01-19T20:02:00.436Z,100972.63
2023-01-19T20:04:26.916Z,100979.41
2023-01-19T20:06:53.410Z,100972.66
2023-01-19T20:09:19.860Z,100979.38
2023-01-19T20:11:46.707Z,100975.16
2023-01-19T20:14:16.173Z,100981.88
2023-01-19T20:16:42.870Z,100983.56
2023-01-19T20:19:09.412Z,100989.47
2023-01-19T20:21:38.098Z,100988.63
2023-01-19T20:24:07.887Z,100991.19
2023-01-19T20:26:36.829Z,100997.94
2023-01-19T20:29:06.882Z,101001.31
2023-01-19T20:31:36.970Z,101005.56
2023-01-19T20:34:05.840Z,101010.59
2023-01-19T20:36:33.183Z,101016.50
2023-01-19T20:38:59.680Z,101021.53
2023-01-19T20:41:27.186Z,101023.22
2023-01-19T20:43:53.924Z,101018.09
2023-01-19T20:46:20.464Z,101035.75
2023-01-19T20:48:50.818Z,101037.41
2023-01-19T20:51:18.736Z,101039.94
2023-01-19T20:53:45.258Z,101040.78
2023-01-19T20:56:13.858Z,101041.66
2023-01-19T20:58:40.702Z,101045.00
2023-01-19T21:01:11.219Z,101050.91
2023-01-19T21:03:37.854Z,101051.78
2023-01-19T21:06:04.825Z,101045.84
2023-01-19T21:08:32.823Z,101043.28
2023-01-19T21:10:59.583Z,101034.00
2023-01-19T21:13:26.298Z,101036.53
2023-01-19T21:15:52.704Z,101030.63
2023-01-19T21:18:19.122Z,101032.31
2023-01-19T21:20:47.974Z,101033.16
2023-01-19T21:23:14.767Z,101025.59
2023-01-19T21:25:49.037Z,101034.84
2023-01-19T21:28:15.498Z,101042.41
2023-01-19T21:30:42.050Z,101053.31
2023-01-19T21:33:10.790Z,101054.94
2023-01-19T21:35:38.278Z,101050.72
2023-01-19T21:38:04.682Z,101055.66
2023-01-19T21:40:31.174Z,101059.03
2023-01-19T21:42:57.671Z,101061.44
2023-01-19T21:45:24.244Z,101063.94
2023-01-19T21:47:50.681Z,101064.72
2023-01-19T21:50:17.226Z,101060.50
2023-01-19T21:52:44.149Z,101066.34
2023-01-19T21:55:10.819Z,101066.31
2023-01-19T21:57:37.431Z,101064.59
2023-01-19T22:00:06.486Z,101077.16
2023-01-19T22:02:38.606Z,101084.69
2023-01-19T22:05:06.552Z,101077.06
2023-01-19T22:07:33.135Z,101081.22
2023-01-19T22:09:59.511Z,101074.44
2023-01-19T22:12:25.944Z,101086.19
2023-01-19T22:14:52.727Z,101089.53
2023-01-19T22:17:19.204Z,101096.31
2023-01-19T22:19:45.667Z,101102.31
2023-01-19T22:22:12.188Z,101104.88
2023-01-19T22:24:39.318Z,101113.34
2023-01-19T22:27:05.743Z,101115.13
2023-01-19T22:29:32.475Z,101112.63
2023-01-19T22:31:58.842Z,101117.69
2023-01-19T22:34:25.307Z,101121.06
2023-01-19T22:36:51.707Z,101120.22
2023-01-19T22:39:18.200Z,101122.75
2023-01-19T22:41:46.493Z,101117.75
2023-01-19T22:44:15.694Z,101120.28
2023-01-19T22:46:42.681Z,101117.78
2023-01-19T22:49:12.726Z,101115.25
2023-01-19T22:51:39.221Z,101116.09
2023-01-19T22:54:06.275Z,101112.69
2023-01-19T22:56:34.057Z,101116.03
2023-01-19T22:59:00.910Z,101117.63
2023-01-19T23:01:31.545Z,101120.94
2023-01-19T23:03:57.985Z,101126.78
2023-01-19T23:06:27.136Z,101127.63
2023-01-19T23:09:03.332Z,101125.94
2023-01-19T23:11:35.820Z,101122.63
2023-01-19T23:14:03.131Z,101115.03
2023-01-19T23:16:29.601Z,101120.88
2023-01-19T23:18:57.938Z,101127.59
2023-01-19T23:21:27.349Z,101129.25
2023-01-19T23:23:56.037Z,101129.25
2023-01-19T23:26:23.624Z,101118.31
2023-01-19T23:28:55.606Z,101132.59
2023-01-19T23:31:25.281Z,101126.69
2023-01-19T23:33:54.303Z,101124.16
2023-01-19T23:36:22.084Z,101121.59
2023-01-19T23:38:54.400Z,101124.06
2023-01-19T23:41:22.359Z,101134.94
2023-01-19T23:43:48.830Z,101131.50
2023-01-19T23:46:16.604Z,101139.00
2023-01-19T23:48:43.132Z,101138.09
2023-01-19T23:51:13.313Z,101143.06
2023-01-19T23:53:40.109Z,101137.97
2023-01-19T23:56:20.859Z,101131.16
2023-01-19T23:58:56.143Z,101137.78
